createdAt,value
2022-10-14T00:04:52.189Z,8.05
2022-10-14T00:09:46.816Z,8.43
2022-10-14T00:14:40.541Z,5.47
2022-10-14T00:19:33.882Z,3.90
2022-10-14T00:24:27.435Z,5.10
2022-10-14T00:29:25.320Z,6.90
2022-10-14T00:34:20.652Z,5.22
2022-10-14T00:39:14.127Z,6.22
2022-10-14T00:44:28.706Z,3.90
2022-10-14T00:49:31.525Z,7.10
2022-10-14T00:54:31.533Z,4.75
2022-10-14T00:59:26.110Z,6.43
2022-10-14T01:04:19.385Z,6.93
2022-10-14T01:09:25.824Z,5.80
2022-10-14T01:14:31.900Z,5.95
2022-10-14T01:19:51.690Z,6.95
2022-10-14T01:25:09.295Z,5.40
2022-10-14T01:30:15.740Z,8.25
2022-10-14T01:35:21.088Z,5.88
2022-10-14T01:40:23.857Z,4.40
2022-10-14T01:45:22.411Z,4.55
2022-10-14T01:50:36.561Z,6.30
2022-10-14T01:55:34.578Z,5.03
2022-10-14T02:00:29.229Z,4.53
2022-10-14T02:05:33.311Z,4.10
2022-10-14T02:10:39.388Z,5.57
2022-10-14T02:15:46.290Z,3.88
2022-10-14T02:20:43.761Z,4.70
2022-10-14T02:25:43.598Z,4.82
2022-10-14T02:31:24.670Z,5.38
2022-10-14T02:36:24.934Z,5.35
2022-10-14T02:46:30.778Z,6.50
2022-10-14T02:56:56.461Z,5.72
2022-10-14T03:01:52.390Z,4.32
2022-10-14T03:06:47.829Z,6.20
2022-10-14T03:11:41.487Z,6.28
2022-10-14T03:16:40.524Z,6.10
2022-10-14T03:21:35.576Z,4.65
2022-10-14T03:26:29.857Z,4.20
2022-10-14T03:31:23.759Z,4.38
2022-10-14T03:41:58.020Z,4.68
2022-10-14T03:47:02.178Z,7.20
2022-10-14T03:52:01.925Z,5.22
2022-10-14T04:03:49.186Z,7.88
2022-10-14T04:09:33.047Z,6.13
2022-10-14T04:15:04.432Z,6.15
2022-10-14T04:33:35.160Z,5.50
2022-10-14T04:38:37.725Z,7.57
2022-10-14T04:44:14.806Z,6.32
2022-10-14T04:50:15.441Z,7.93
2022-10-14T05:01:56.356Z,8.50
2022-10-14T05:14:25.730Z,5.22
2022-10-14T05:22:24.861Z,6.80
2022-10-14T06:14:11.604Z,14.98
2022-10-14T06:40:39.321Z,11.75
2022-10-14T06:53:35.943Z,11.07
2022-10-14T07:18:24.287Z,9.60
2022-10-14T07:23:18.015Z,9.68
2022-10-14T07:28:12.857Z,11.57
2022-10-14T07:33:06.622Z,12.25
2022-10-14T07:38:04.095Z,10.75
2022-10-14T07:42:57.504Z,16.17
2022-10-14T07:47:55.315Z,13.43
2022-10-14T07:52:50.141Z,19.73
2022-10-14T07:57:46.395Z,20.48
2022-10-14T08:02:46.428Z,16.90
2022-10-14T08:07:44.308Z,15.80
2022-10-14T08:12:42.706Z,16.95
2022-10-14T08:17:36.460Z,16.80
2022-10-14T08:22:29.724Z,17.65
2022-10-14T08:27:27.510Z,17.70
2022-10-14T08:32:21.408Z,19.95
2022-10-14T08:37:15.306Z,14.70
2022-10-14T08:42:31.299Z,16.08
2022-10-14T08:47:32.909Z,17.38
2022-10-14T08:52:37.550Z,13.00
2022-10-14T08:57:37.956Z,16.00
2022-10-14T09:02:43.211Z,13.73
2022-10-14T09:07:41.911Z,9.25
2022-10-14T09:12:36.764Z,11.85
2022-10-14T09:17:44.241Z,10.95
2022-10-14T09:22:47.524Z,10.35
2022-10-14T09:27:41.227Z,10.18
2022-10-14T09:32:41.167Z,10.13
2022-10-14T09:37:35.610Z,9.35
2022-10-14T09:42:43.500Z,10.55
2022-10-14T09:47:44.848Z,10.75
2022-10-14T09:52:42.882Z,7.60
2022-10-14T09:57:40.475Z,9.80
2022-10-14T10:02:43.604Z,10.75
2022-10-14T10:07:36.885Z,6.78
2022-10-14T10:13:07.602Z,9.13
2022-10-14T10:18:19.536Z,8.75
2022-10-14T10:23:31.177Z,9.75
2022-10-14T10:33:32.732Z,8.70
2022-10-14T10:38:34.826Z,7.10
2022-10-14T10:43:54.985Z,9.02
2022-10-14T10:48:56.077Z,9.32
2022-10-14T10:54:10.719Z,7.15
2022-10-14T10:59:37.841Z,6.00
2022-10-14T11:04:37.642Z,8.48
2022-10-14T11:09:54.374Z,7.07
2022-10-14T11:15:15.453Z,12.77
2022-10-14T11:20:21.254Z,6.85
2022-10-14T11:25:29.283Z,5.82
2022-10-14T11:30:32.738Z,7.15
2022-10-14T11:35:39.068Z,6.55
2022-10-14T11:40:54.245Z,5.18
2022-10-14T11:45:59.946Z,8.05
2022-10-14T11:50:58.489Z,8.95
2022-10-14T11:55:59.673Z,4.88
2022-10-14T12:01:21.129Z,7.07
2022-10-14T12:06:20.547Z,5.80
2022-10-14T12:11:27.482Z,6.38
2022-10-14T12:16:24.939Z,7.05
2022-10-14T12:21:23.456Z,5.10
2022-10-14T12:26:28.763Z,4.53
2022-10-14T12:31:34.545Z,4.32
2022-10-14T12:41:39.468Z,7.32
2022-10-14T12:46:47.204Z,5.13
2022-10-14T12:51:54.935Z,7.95
2022-10-14T12:56:57.421Z,6.43
2022-10-14T13:01:58.522Z,6.20
2022-10-14T13:07:41.853Z,6.38
2022-10-14T13:12:44.028Z,5.88
2022-10-14T13:17:56.465Z,7.70
2022-10-14T13:22:51.577Z,5.22
2022-10-14T13:28:05.580Z,7.05
2022-10-14T13:33:05.635Z,5.28
2022-10-14T13:38:02.027Z,5.35
2022-10-14T13:42:58.422Z,5.72
2022-10-14T13:47:51.741Z,6.13
2022-10-14T13:52:53.566Z,5.53
2022-10-14T13:58:12.460Z,5.20
2022-10-14T14:03:23.221Z,7.85
2022-10-14T14:08:41.935Z,5.65
2022-10-14T14:13:59.882Z,5.25
2022-10-14T14:19:07.875Z,8.45
2022-10-14T14:24:07.605Z,7.03
2022-10-14T14:29:05.654Z,7.78
2022-10-14T14:34:00.741Z,3.10
2022-10-14T14:38:57.737Z,6.65
2022-10-14T14:44:13.658Z,3.75
2022-10-14T14:49:10.309Z,4.65
2022-10-14T14:54:04.174Z,5.70
2022-10-14T14:59:07.938Z,6.18
2022-10-14T15:04:13.466Z,6.15
2022-10-14T15:09:14.425Z,5.13
2022-10-14T15:14:30.976Z,8.05
2022-10-14T15:19:47.288Z,6.40
2022-10-14T15:25:03.928Z,6.60
2022-10-14T15:38:13.770Z,8.90
2022-10-14T15:43:20.800Z,8.55
2022-10-14T16:01:20.940Z,9.68
2022-10-14T16:06:27.245Z,7.95
2022-10-14T16:12:02.392Z,8.07
2022-10-14T16:24:33.465Z,6.22
2022-10-14T17:23:15.116Z,14.45
2022-10-14T17:28:50.775Z,11.02
2022-10-14T17:35:10.272Z,11.60
2022-10-14T19:06:37.240Z,6.78
2022-10-14T19:12:54.538Z,6.60
2022-10-14T19:31:48.640Z,7.53
2022-10-14T19:44:29.276Z,5.32
2022-10-14T19:49:47.652Z,6.47
2022-10-14T19:56:09.835Z,8.25
2022-10-14T20:08:59.810Z,6.30
2022-10-14T20:29:31.150Z,6.60
2022-10-14T20:34:27.325Z,7.32
2022-10-14T20:39:38.854Z,5.68
2022-10-14T20:51:17.164Z,6.10
2022-10-14T21:43:44.481Z,6.93
2022-10-14T21:50:13.096Z,6.07
2022-10-14T21:55:52.878Z,9.43
2022-10-14T22:02:32.525Z,7.25
2022-10-14T22:08:52.443Z,8.40
2022-10-14T22:22:18.476Z,9.88
2022-10-14T22:30:38.424Z,6.78
2022-10-14T23:08:58.672Z,6.05
2022-10-14T23:13:57.566Z,7.15
2022-10-14T23:26:16.705Z,4.82
2022-10-14T23:31:29.569Z,4.65
2022-10-14T23:36:28.294Z,5.65
2022-10-14T23:48:36.535Z,8.15
2022-10-14T23:53:36.220Z,5.40
2022-10-14T23:59:08.615Z,6.97
